Time;durP1;ratioP1;P1;durP2;ratioP2;P2;SDS_P1;SDS_P2;PMS_P1;PMS_P2;Temp;Humidity;BMP_temperature;BMP_pressure;BME280_temperature;BME280_humidity;BME280_pressure;Samples;Min_cycle;Max_cycle;Signal;HPM_P1;HPM_P2
2021/12/08 15:29:11;;;;;;;85.80;34.23;;;;;;;-3.13;96.54;100193.56;5300354;54;46160;-80
2021/12/08 15:34:21;;;;;;;74.03;32.27;;;;;;;-3.17;96.34;100210.05;5107319;57;1134732;-80
2021/12/08 15:39:30;;;;;;;93.00;37.20;;;;;;;-3.21;96.39;100188.14;5094423;57;1138924;-80
2021/12/08 15:44:39;;;;;;;77.40;34.07;;;;;;;-3.21;96.58;100188.61;5077996;57;1139217;-81
2021/12/08 15:49:45;;;;;;;101.20;46.10;;;;;;;-3.18;96.55;100197.55;5207757;56;1138964;-80
2021/12/08 15:54:50;;;;;;;108.73;48.20;;;;;;;-3.15;96.59;100183.25;5209357;56;1141187;-80
2021/12/08 15:59:56;;;;;;;117.80;47.77;;;;;;;-3.12;96.28;100185.77;5145794;56;1141078;-79
2021/12/08 16:05:07;;;;;;;110.83;50.17;;;;;;;-3.18;96.10;100167.81;5183895;56;1141057;-80
2021/12/08 16:10:28;;;;;;;122.90;46.73;;;;;;;-3.18;96.17;100169.11;5188955;56;1141001;-80
2021/12/08 16:15:48;;;;;;;110.23;44.53;;;;;;;-3.19;96.20;100157.91;5113375;56;1141024;-79
2021/12/08 16:20:57;;;;;;;105.10;43.93;;;;;;;-3.16;96.25;100163.89;5092874;56;1143238;-79
2021/12/08 16:26:02;;;;;;;139.67;56.73;;;;;;;-3.17;96.06;100164.78;5212670;56;1143218;-79
2021/12/08 16:31:08;;;;;;;88.30;35.77;;;;;;;-3.17;96.08;100176.42;5097129;57;1143114;-79
2021/12/08 16:36:13;;;;;;;92.30;35.47;;;;;;;-3.16;96.06;100171.66;5053776;57;1141360;-80
2021/12/08 16:46:42;;;;;;;109.25;42.58;;;;;;;-3.21;96.04;100151.11;5121513;57;1141104;-80
2021/12/08 16:51:48;;;;;;;106.37;39.83;;;;;;;-3.20;96.13;100160.09;5082968;57;1143169;-79
2021/12/08 16:56:54;;;;;;;86.73;33.07;;;;;;;-3.16;96.24;100161.31;5092759;57;1143111;-80
2021/12/08 17:02:00;;;;;;;84.37;35.50;;;;;;;-3.21;95.82;100164.86;5109215;57;1141156;-80
2021/12/08 17:07:10;;;;;;;91.30;40.27;;;;;;;-3.26;95.82;100155.55;5134406;57;1141220;-80
2021/12/08 17:12:16;;;;;;;109.03;42.93;;;;;;;-3.28;96.06;100175.42;5116760;57;1141058;-80
2021/12/08 17:17:22;;;;;;;91.23;34.63;;;;;;;-3.32;95.82;100187.58;5127246;56;1143134;-79
2021/12/08 17:22:28;;;;;;;93.17;33.63;;;;;;;-3.29;96.13;100186.66;5215039;56;1141099;-79
2021/12/08 17:27:35;;;;;;;71.13;30.10;;;;;;;-3.31;95.97;100186.69;5200383;56;1141158;-80
2021/12/08 17:32:41;;;;;;;84.70;32.43;;;;;;;-3.35;95.81;100194.56;5214511;56;1141062;-81
2021/12/08 17:37:47;;;;;;;79.33;31.47;;;;;;;-3.42;95.98;100186.14;5219939;56;1141267;-81
2021/12/08 17:42:53;;;;;;;87.00;32.00;;;;;;;-3.41;96.24;100173.61;5242463;56;1141172;-82
2021/12/08 17:48:01;;;;;;;98.90;43.30;;;;;;;-3.37;96.46;100157.59;5236805;56;1141112;-81
2021/12/08 17:53:08;;;;;;;86.17;34.33;;;;;;;-3.33;96.53;100153.56;5170553;56;1141158;-81
2021/12/08 17:58:15;;;;;;;77.70;31.17;;;;;;;-3.38;96.68;100143.81;5177731;56;1141329;-79
2021/12/08 18:03:23;;;;;;;118.70;42.43;;;;;;;-3.38;96.89;100142.52;5159537;56;1141068;-80
2021/12/08 18:08:32;;;;;;;275.20;114.43;;;;;;;-3.39;97.08;100139.97;5147238;56;1143264;-79
2021/12/08 18:13:39;;;;;;;149.07;71.60;;;;;;;-3.38;97.37;100125.71;5146025;56;1145327;-82
2021/12/08 18:18:44;;;;;;;92.90;40.83;;;;;;;-3.37;97.67;100127.85;5203218;56;1143211;-80
2021/12/08 18:23:50;;;;;;;82.88;31.48;;;;;;;-3.35;97.80;100128.63;5185797;56;1141010;-81
2021/12/08 18:28:56;;;;;;;70.77;30.43;;;;;;;-3.31;97.93;100126.38;5177919;56;1141420;-84
2021/12/08 18:34:04;;;;;;;75.83;31.03;;;;;;;-3.31;98.14;100114.30;5175195;56;1141266;-80
2021/12/08 18:39:13;;;;;;;72.90;30.80;;;;;;;-3.30;98.33;100117.73;5197507;56;1141114;-80
2021/12/08 18:44:21;;;;;;;86.10;33.13;;;;;;;-3.31;98.74;100102.66;5164609;56;1141200;-79
2021/12/08 18:49:26;;;;;;;75.52;29.92;;;;;;;-3.32;98.98;100107.42;5151207;56;1141131;-80
2021/12/08 18:54:33;;;;;;;56.97;22.50;;;;;;;-3.30;98.88;100106.95;5170552;56;1141121;-78
2021/12/08 18:59:40;;;;;;;63.60;26.70;;;;;;;-3.31;99.37;100120.77;5157455;56;1139049;-77
2021/12/08 19:04:45;;;;;;;60.77;26.40;;;;;;;-3.34;99.58;100117.41;5169766;56;1139101;-80
2021/12/08 19:09:52;;;;;;;55.90;25.70;;;;;;;-3.37;99.69;100136.91;5151312;56;1138945;-78
2021/12/08 19:14:57;;;;;;;59.10;25.73;;;;;;;-3.38;100.00;100128.73;5151127;56;1139094;-78
2021/12/08 19:20:07;;;;;;;66.90;28.57;;;;;;;-3.34;99.70;100139.38;5170666;56;1141140;-84
2021/12/08 19:25:14;;;;;;;58.90;23.70;;;;;;;-3.31;99.97;100128.52;5152851;56;1139104;-80
2021/12/08 19:30:23;;;;;;;79.17;31.83;;;;;;;-3.27;100.00;100123.67;5190244;56;1139051;-79
2021/12/08 19:35:32;;;;;;;108.20;38.00;;;;;;;-3.25;100.00;100118.46;5186415;56;1141368;-80
2021/12/08 19:40:38;;;;;;;63.23;26.30;;;;;;;-3.22;100.00;100112.77;5184800;56;1143275;-83
2021/12/08 19:45:49;;;;;;;51.23;22.13;;;;;;;-3.19;100.00;100128.17;5247859;56;1141123;-81
2021/12/08 19:50:53;;;;;;;91.00;31.83;;;;;;;-3.17;100.00;100128.58;5249183;56;1141591;-77
2021/12/08 19:55:59;;;;;;;88.37;33.13;;;;;;;-3.15;100.00;100120.33;5175425;56;1141292;-78
2021/12/08 20:01:07;;;;;;;60.37;24.63;;;;;;;-3.11;100.00;100120.21;5177816;56;1141169;-84
2021/12/08 20:06:16;;;;;;;66.97;27.93;;;;;;;-3.10;100.00;100112.01;5234468;56;1141373;-79
2021/12/08 20:11:23;;;;;;;63.93;27.63;;;;;;;-3.10;100.00;100126.23;5146903;56;1141666;-78
2021/12/08 20:16:28;;;;;;;62.43;26.07;;;;;;;-3.10;100.00;100134.84;5146239;57;1139241;-78
2021/12/08 20:21:34;;;;;;;70.60;26.83;;;;;;;-3.12;100.00;100143.53;5183213;56;1226131;-78
2021/12/08 20:26:41;;;;;;;74.93;31.17;;;;;;;-3.16;100.00;100145.80;5217215;56;1143150;-80
2021/12/08 20:31:47;;;;;;;75.70;30.93;;;;;;;-3.14;100.00;100145.31;5227883;56;1143084;-80
2021/12/08 20:36:52;;;;;;;64.33;25.40;;;;;;;-3.11;100.00;100152.98;5227819;56;1143251;-80
2021/12/08 20:41:58;;;;;;;62.50;25.55;;;;;;;-3.13;100.00;100143.97;5228690;56;1143491;-78
2021/12/08 20:47:06;;;;;;;57.37;23.73;;;;;;;-3.13;100.00;100150.88;5227686;56;1143540;-81
2021/12/08 20:52:13;;;;;;;67.40;26.30;;;;;;;-3.11;100.00;100155.58;5227289;56;1143235;-80
2021/12/08 20:57:20;;;;;;;100.40;43.57;;;;;;;-3.08;100.00;100162.81;5228809;56;1143293;-79
2021/12/08 21:02:27;;;;;;;51.00;21.90;;;;;;;-3.06;100.00;100164.91;5228709;56;1145301;-79
2021/12/08 21:07:34;;;;;;;62.90;25.53;;;;;;;-3.07;100.00;100168.39;5228030;56;1143227;-81
2021/12/08 21:12:41;;;;;;;57.63;24.87;;;;;;;-3.10;100.00;100170.20;5227427;56;1143476;-79
2021/12/08 21:17:48;;;;;;;80.83;31.77;;;;;;;-3.12;100.00;100174.57;5189675;56;1143232;-80
2021/12/08 21:22:57;;;;;;;74.80;32.53;;;;;;;-3.11;100.00;100169.36;5141615;57;1143106;-81
2021/12/08 21:28:05;;;;;;;71.33;29.70;;;;;;;-3.11;100.00;100169.36;5141776;57;1143183;-79
2021/12/08 21:33:14;;;;;;;83.60;32.80;;;;;;;-3.11;100.00;100140.91;5116509;57;1143300;-81
2021/12/08 21:38:24;;;;;;;117.90;43.53;;;;;;;-3.08;100.00;100132.22;5155192;57;1143383;-78
2021/12/08 21:43:33;;;;;;;73.93;30.30;;;;;;;-3.07;100.00;100123.13;5150350;57;1145361;-79
2021/12/08 21:48:40;;;;;;;69.92;29.63;;;;;;;-3.08;100.00;100111.08;5154456;57;1143193;-83
2021/12/08 21:53:48;;;;;;;73.28;30.57;;;;;;;-3.10;100.00;100103.80;5154958;57;1143229;-82
2021/12/08 21:58:55;;;;;;;77.53;30.30;;;;;;;-3.11;100.00;100090.47;5154975;57;1143161;-78
2021/12/08 22:04:00;;;;;;;75.32;31.42;;;;;;;-3.11;100.00;100093.50;5124438;57;1143224;-80
2021/12/08 22:09:08;;;;;;;68.03;30.17;;;;;;;-3.13;100.00;100088.37;5155275;57;1143195;-82
2021/12/08 22:14:14;;;;;;;74.10;29.33;;;;;;;-3.12;100.00;100082.31;5147674;57;1143298;-78
2021/12/08 22:19:20;;;;;;;78.77;30.10;;;;;;;-3.12;100.00;100078.88;5210357;56;1143148;-79
2021/12/08 22:24:26;;;;;;;83.73;35.93;;;;;;;-3.12;100.00;100084.05;5231029;56;1143560;-79
2021/12/08 22:29:31;;;;;;;75.90;30.90;;;;;;;-3.11;100.00;100084.00;5231390;56;1143158;-83
2021/12/08 22:34:38;;;;;;;83.47;34.70;;;;;;;-3.10;100.00;100084.41;5209978;56;1143185;-82
2021/12/08 22:39:45;;;;;;;57.33;22.77;;;;;;;-3.10;100.00;100081.82;5205713;56;1143202;-81
2021/12/08 22:44:50;;;;;;;64.73;27.17;;;;;;;-3.14;100.00;100064.69;5205762;56;1143553;-82
2021/12/08 22:49:59;;;;;;;76.33;31.63;;;;;;;-3.15;100.00;100071.19;5205636;56;1143190;-85
2021/12/08 22:55:07;;;;;;;74.43;31.87;;;;;;;-3.16;100.00;100080.69;5205570;56;1143179;-80
2021/12/08 23:00:37;;;;;;;66.50;29.43;;;;;;;-3.12;100.00;100100.86;5205635;56;1143564;-81
2021/12/08 23:05:44;;;;;;;77.37;30.77;;;;;;;-3.09;100.00;100092.57;5205970;56;1141351;-80
2021/12/08 23:10:59;;;;;;;78.67;33.43;;;;;;;-3.05;100.00;100093.30;5205727;56;1141136;-77
2021/12/08 23:16:02;;;;;;;68.67;30.13;;;;;;;-3.05;100.00;100086.39;5197416;56;1141230;-78
2021/12/08 23:21:08;;;;;;;80.47;34.07;;;;;;;-3.04;100.00;100081.63;5120326;57;1141435;-80
2021/12/08 23:26:16;;;;;;;83.90;32.73;;;;;;;-3.00;100.00;100088.86;5120203;57;1141186;-81
2021/12/08 23:31:22;;;;;;;80.87;32.73;;;;;;;-3.06;100.00;100104.13;5120196;57;1141135;-80
2021/12/08 23:36:43;;;;;;;78.17;32.53;;;;;;;-3.08;100.00;100077.90;5145769;57;1141429;-80
2021/12/08 23:41:42;;;;;;;71.37;29.83;;;;;;;-3.09;100.00;100069.29;5144818;57;1141417;-79
2021/12/08 23:46:48;;;;;;;76.20;32.43;;;;;;;-3.07;100.00;100061.48;5146402;57;1140582;-81
2021/12/08 23:51:54;;;;;;;69.00;29.27;;;;;;;-3.05;100.00;100063.11;5147095;57;1141133;-79
2021/12/08 23:57:02;;;;;;;75.90;32.30;;;;;;;-3.04;100.00;100054.91;5147081;57;1141173;-77
